Falcon AFB, Colorado
Current Conditions -  °F | °C
As of 11:54 AM on Thursday 27 Nov 2014 (Local Time) from KCOS Reporting Station
Broken Clouds Broken Clouds  
Wind Chill: 64°   Ceiling: 22000
Heat Index: 64°   Visibility: 10mi
Dew Point:   Wind: 8mph
Humidity: 12%   Direction: 220°SW
Pressure: 30.24"   Gusts: NA
Location:  38.8334°N, 104.82°W
Report Text: KCOS 271854Z 22007KT 10SM FEW160 BKN220 18/M13 A3024 RMK AO2 SLP230 CCSL S AND NW T01781128
Loading
Personal Weather Stations






























Interactive Weather Map New forecast layout! Learn more

10-Day Weather Forecast

Advertisements
Track Severe Weather on mobile